Time;durP1;ratioP1;P1;durP2;ratioP2;P2;SDS_P1;SDS_P2;PMS_P1;PMS_P2;Temp;Humidity;BMP_temperature;BMP_pressure;BME280_temperature;BME280_humidity;BME280_pressure;Samples;Min_cycle;Max_cycle;Signal;HPM_P1;HPM_P2
2024/04/05 00:00:32;;;;;;;41.20;5.78;;;12.20;99.90;;;;;;10411986;28;20045;-51
2024/04/05 00:05:38;;;;;;;34.53;5.75;;;12.10;99.90;;;;;;10412900;28;20075;-55
2024/04/05 00:10:48;;;;;;;43.10;7.18;;;12.00;99.90;;;;;;10408018;28;20584;-51
2024/04/05 00:15:53;;;;;;;34.65;5.00;;;12.00;99.90;;;;;;10413229;28;20040;-51
2024/04/05 00:21:05;;;;;;;38.85;4.70;;;12.20;99.90;;;;;;10414266;28;20171;-50
2024/04/05 00:26:09;;;;;;;30.80;3.55;;;12.20;99.90;;;;;;10414904;28;20049;-51
2024/04/05 00:31:13;;;;;;;34.90;3.80;;;12.30;99.90;;;;;;10412617;28;20057;-52
2024/04/05 00:36:20;;;;;;;21.67;3.60;;;12.50;99.90;;;;;;10414299;28;20076;-50
2024/04/05 00:41:27;;;;;;;25.58;3.67;;;12.30;99.90;;;;;;10412967;28;20063;-50
2024/04/05 00:46:32;;;;;;;28.77;3.22;;;12.70;99.90;;;;;;10415143;28;20049;-50
2024/04/05 00:51:43;;;;;;;14.50;3.97;;;12.60;99.90;;;;;;10417761;28;20049;-57
2024/04/05 00:56:46;;;;;;;35.67;3.60;;;13.00;99.90;;;;;;10420969;28;20122;-54
2024/04/05 01:01:51;;;;;;;22.85;3.85;;;12.60;99.90;;;;;;10422594;28;20049;-51
2024/04/05 01:06:54;;;;;;;24.13;3.55;;;12.20;99.90;;;;;;10423458;28;20051;-55
2024/04/05 01:12:00;;;;;;;35.50;4.38;;;13.00;99.90;;;;;;10429158;28;20103;-56
2024/04/05 01:17:05;;;;;;;24.02;3.85;;;12.70;99.90;;;;;;10421988;28;20064;-55
2024/04/05 01:22:22;;;;;;;17.10;2.47;;;12.60;99.90;;;;;;10425857;28;20048;-53
2024/04/05 01:27:25;;;;;;;25.20;4.15;;;13.30;99.90;;;;;;10424566;28;20932;-53
2024/04/05 01:32:40;;;;;;;29.55;4.00;;;13.80;99.90;;;;;;10422926;28;20071;-54
2024/04/05 01:37:42;;;;;;;38.63;5.65;;;13.60;99.90;;;;;;10420293;28;20064;-60
2024/04/05 01:43:22;;;;;;;26.35;4.40;;;14.00;99.90;;;;;;10423379;28;23249;-54
2024/04/05 01:48:27;;;;;;;39.80;6.10;;;13.50;99.90;;;;;;10418710;28;20488;-55
2024/04/05 01:54:19;;;;;;;28.52;3.85;;;14.00;99.90;;;;;;10427146;28;20127;-53
2024/04/05 01:59:25;;;;;;;28.40;5.38;;;14.40;99.90;;;;;;10421580;28;20049;-52
2024/04/05 02:04:28;;;;;;;23.02;4.70;;;14.60;99.90;;;;;;10424657;28;22637;-54
2024/04/05 02:09:33;;;;;;;35.03;5.68;;;14.40;99.90;;;;;;10419641;28;20076;-53
2024/04/05 02:14:36;;;;;;;26.77;4.18;;;14.70;99.90;;;;;;10420270;28;20041;-53
2024/04/05 02:19:41;;;;;;;35.80;6.25;;;13.80;99.90;;;;;;10422175;28;20060;-55
2024/04/05 02:24:43;;;;;;;27.67;4.85;;;14.50;99.90;;;;;;10424078;28;20135;-55
2024/04/05 02:29:49;;;;;;;23.27;3.67;;;14.90;99.90;;;;;;10417844;28;20056;-54
2024/04/05 02:34:54;;;;;;;23.80;4.10;;;15.50;99.90;;;;;;10416550;28;20629;-56
2024/04/05 02:39:56;;;;;;;24.92;4.18;;;15.20;99.90;;;;;;10422949;28;20958;-56
2024/04/05 02:44:59;;;;;;;20.83;3.28;;;15.60;99.90;;;;;;10418195;28;20084;-54
2024/04/05 02:50:01;;;;;;;42.58;5.20;;;15.20;99.90;;;;;;10420214;28;20063;-57
2024/04/05 02:55:05;;;;;;;19.30;3.27;;;15.10;99.90;;;;;;10420361;28;20452;-55
2024/04/05 03:00:11;;;;;;;15.85;2.88;;;14.80;99.90;;;;;;10413403;28;20499;-53
2024/04/05 03:05:14;;;;;;;18.35;2.90;;;14.20;99.90;;;;;;10418057;28;20057;-55
2024/04/05 03:10:17;;;;;;;27.63;5.15;;;14.40;99.90;;;;;;10419816;28;20103;-55
2024/04/05 03:15:30;;;;;;;;;;;;;;;;;;;;;
2024/04/05 03:20:35;;;;;;;25.08;3.38;;;14.50;99.90;;;;;;10422035;28;20053;-57
2024/04/05 03:25:39;;;;;;;16.48;3.15;;;15.00;99.90;;;;;;10421758;28;20114;-54
2024/04/05 03:30:46;;;;;;;19.55;3.50;;;15.50;99.90;;;;;;10418777;28;20037;-54
2024/04/05 03:35:53;;;;;;;12.27;3.30;;;15.90;99.90;;;;;;10418231;28;20211;-57
2024/04/05 03:40:55;;;;;;;18.92;3.20;;;15.90;99.90;;;;;;10416347;28;20053;-56
2024/04/05 03:46:04;;;;;;;17.03;3.23;;;15.50;99.90;;;;;;10420358;28;20076;-56
2024/04/05 03:51:06;;;;;;;12.10;2.55;;;15.10;99.90;;;;;;10417284;28;20052;-53
2024/04/05 03:56:09;;;;;;;15.97;3.90;;;15.50;99.90;;;;;;10417701;28;20040;-53
2024/04/05 04:01:19;;;;;;;14.68;2.70;;;15.50;99.90;;;;;;10416115;28;20052;-55
2024/04/05 04:06:24;;;;;;;9.70;1.95;;;16.20;99.90;;;;;;10412360;28;20044;-55
2024/04/05 04:11:27;;;;;;;21.52;2.53;;;16.80;99.90;;;;;;10414711;28;20170;-52
2024/04/05 04:16:30;;;;;;;21.55;4.00;;;16.70;99.90;;;;;;10414428;28;20104;-54
2024/04/05 04:21:32;;;;;;;12.98;2.72;;;16.30;99.90;;;;;;10413540;28;20118;-55
2024/04/05 04:26:34;;;;;;;14.23;3.00;;;15.50;99.90;;;;;;10413885;28;20052;-55
2024/04/05 04:31:39;;;;;;;13.60;2.43;;;15.70;99.90;;;;;;10414933;28;20459;-55
2024/04/05 04:36:44;;;;;;;17.08;3.28;;;16.50;99.90;;;;;;10413656;28;20536;-55
2024/04/05 04:41:51;;;;;;;8.32;2.28;;;17.00;99.90;;;;;;10416332;28;20099;-55
2024/04/05 04:46:55;;;;;;;13.88;2.75;;;17.10;99.90;;;;;;10418032;28;20060;-54
2024/04/05 04:51:57;;;;;;;12.95;3.47;;;17.00;99.90;;;;;;10417808;28;20060;-55
2024/04/05 04:57:02;;;;;;;12.25;2.15;;;16.60;99.90;;;;;;10416691;28;20512;-58
2024/04/05 05:02:09;;;;;;;15.18;3.38;;;16.70;99.90;;;;;;10420372;28;20056;-51
2024/04/05 05:07:11;;;;;;;7.47;2.13;;;16.90;99.90;;;;;;10421730;28;20073;-51
2024/04/05 05:12:15;;;;;;;12.00;2.67;;;17.00;99.90;;;;;;10419122;28;20052;-53
2024/04/05 05:17:19;;;;;;;13.95;2.00;;;17.10;99.90;;;;;;10417879;28;20053;-55
2024/04/05 05:22:24;;;;;;;20.17;3.83;;;17.20;99.90;;;;;;10416507;28;20800;-55
2024/04/05 05:27:28;;;;;;;16.55;3.58;;;16.90;99.90;;;;;;10420648;28;20155;-54
2024/04/05 05:32:31;;;;;;;9.98;2.53;;;17.10;99.90;;;;;;10413205;28;20059;-51
2024/04/05 05:37:33;;;;;;;6.00;1.95;;;17.20;99.90;;;;;;10414470;28;20059;-54
2024/04/05 05:42:35;;;;;;;10.63;1.88;;;17.50;99.90;;;;;;10414592;28;22624;-55
2024/04/05 05:47:40;;;;;;;12.90;2.67;;;17.50;99.90;;;;;;10414233;28;20155;-53
2024/04/05 05:52:43;;;;;;;11.75;2.20;;;17.20;99.90;;;;;;10413482;28;20579;-58
2024/04/05 05:57:45;;;;;;;5.88;1.80;;;17.40;99.90;;;;;;10414366;28;20060;-56
2024/04/05 06:02:51;;;;;;;7.15;1.95;;;17.70;99.90;;;;;;10414489;28;20182;-53
2024/04/05 06:07:56;;;;;;;10.00;2.03;;;17.60;99.90;;;;;;10415008;28;20087;-54
2024/04/05 06:12:58;;;;;;;8.25;2.08;;;17.60;99.90;;;;;;10416418;28;20140;-51
2024/04/05 06:18:03;;;;;;;15.93;1.90;;;17.60;99.90;;;;;;10410819;28;20059;-56
2024/04/05 06:23:05;;;;;;;10.95;2.10;;;17.60;99.90;;;;;;10416796;28;20056;-51
2024/04/05 06:28:07;;;;;;;12.43;2.15;;;17.40;99.90;;;;;;10413345;28;20056;-54
2024/04/05 06:33:10;;;;;;;18.70;2.90;;;18.00;99.90;;;;;;10419878;28;20060;-54
2024/04/05 06:38:18;;;;;;;13.07;2.95;;;17.30;99.90;;;;;;10424291;28;20516;-57
2024/04/05 06:43:21;;;;;;;9.50;2.45;;;17.60;99.90;;;;;;10422434;28;20052;-54
2024/04/05 06:48:28;;;;;;;13.60;2.50;;;17.70;99.90;;;;;;10422449;28;20057;-54
2024/04/05 06:53:30;;;;;;;12.23;2.35;;;18.00;99.90;;;;;;10416799;28;20053;-54
2024/04/05 06:58:33;;;;;;;14.25;4.10;;;18.20;99.90;;;;;;10407169;28;20060;-56
2024/04/05 07:03:36;;;;;;;10.77;2.67;;;17.90;99.90;;;;;;10412286;28;20638;-56
2024/04/05 07:08:40;;;;;;;13.60;2.67;;;17.90;99.90;;;;;;10412656;28;20055;-56
2024/04/05 07:13:47;;;;;;;11.80;2.40;;;17.90;99.90;;;;;;10412944;28;20064;-55
2024/04/05 07:18:53;;;;;;;19.65;3.92;;;18.20;99.90;;;;;;10411766;28;20541;-54
2024/04/05 07:23:58;;;;;;;11.57;2.30;;;18.20;99.90;;;;;;10412189;28;20060;-57
2024/04/05 07:29:01;;;;;;;6.57;1.92;;;17.90;99.90;;;;;;10411304;28;20103;-52
2024/04/05 07:34:05;;;;;;;5.88;1.38;;;18.10;99.90;;;;;;10411300;28;20052;-54
2024/04/05 07:39:08;;;;;;;9.02;1.70;;;18.40;99.90;;;;;;10411467;28;20525;-55
2024/04/05 07:44:09;;;;;;;;;;;18.40;99.90;;;;;;10409063;28;20762;-54
2024/04/05 07:49:15;;;;;;;5.55;1.80;;;18.30;99.90;;;;;;10410896;28;19929;-55
2024/04/05 07:54:20;;;;;;;7.35;1.83;;;17.90;99.90;;;;;;10410656;28;20122;-53
2024/04/05 07:59:22;;;;;;;9.40;1.73;;;18.10;99.90;;;;;;10412501;28;20657;-55
2024/04/05 08:04:28;;;;;;;6.78;1.50;;;18.20;99.90;;;;;;10409585;28;20548;-56
2024/04/05 08:09:31;;;;;;;7.97;1.75;;;18.10;99.90;;;;;;10410040;28;20049;-55
2024/04/05 08:14:35;;;;;;;10.05;1.75;;;18.20;99.90;;;;;;10406887;28;20076;-55
2024/04/05 08:19:40;;;;;;;7.80;2.38;;;18.20;99.90;;;;;;10407035;28;20052;-54
2024/04/05 08:24:42;;;;;;;7.93;2.60;;;18.30;99.90;;;;;;10411849;28;20119;-54
2024/04/05 08:29:48;;;;;;;10.98;2.15;;;18.30;99.90;;;;;;10410375;28;20076;-53
2024/04/05 08:34:53;;;;;;;6.35;1.88;;;18.20;99.90;;;;;;10408098;28;20116;-55
2024/04/05 08:39:55;;;;;;;8.48;1.48;;;18.10;99.90;;;;;;10407156;28;20591;-53
2024/04/05 08:44:59;;;;;;;9.45;2.05;;;18.10;99.90;;;;;;10408811;28;20103;-53
2024/04/05 08:50:14;;;;;;;7.55;1.50;;;17.90;99.90;;;;;;10412573;28;20052;-55
2024/04/05 08:55:19;;;;;;;7.97;1.60;;;17.70;99.90;;;;;;10414390;28;20077;-54
2024/04/05 09:00:23;;;;;;;8.07;1.90;;;16.50;99.90;;;;;;10420979;28;20137;-51
2024/04/05 09:05:26;;;;;;;4.50;1.30;;;16.50;99.90;;;;;;10418825;28;20744;-52
2024/04/05 09:10:28;;;;;;;4.15;1.50;;;16.50;99.90;;;;;;10420746;28;20044;-53
2024/04/05 09:15:31;;;;;;;3.43;0.97;;;16.30;99.90;;;;;;10417533;28;20082;-54
2024/04/05 09:20:35;;;;;;;7.90;1.55;;;16.70;99.90;;;;;;10420088;28;20221;-55
2024/04/05 09:25:40;;;;;;;6.25;1.35;;;16.30;99.90;;;;;;10424047;28;20540;-55
2024/04/05 09:30:48;;;;;;;7.28;1.20;;;17.30;99.90;;;;;;10419911;28;20792;-51
2024/04/05 09:35:54;;;;;;;4.80;0.90;;;16.40;99.90;;;;;;10416344;28;20052;-53
2024/04/05 09:41:01;;;;;;;6.50;1.45;;;16.80;99.90;;;;;;10419206;28;20045;-54
2024/04/05 09:46:04;;;;;;;4.35;0.82;;;16.20;99.90;;;;;;10415401;28;20075;-54
2024/04/05 09:51:15;;;;;;;5.35;1.17;;;16.40;99.90;;;;;;10415487;28;20148;-55
2024/04/05 09:56:19;;;;;;;6.93;1.63;;;16.60;99.90;;;;;;10415491;28;20053;-53
2024/04/05 10:01:23;;;;;;;5.53;1.25;;;16.60;99.90;;;;;;10418019;28;20531;-53
2024/04/05 10:06:38;;;;;;;8.80;1.25;;;16.40;99.90;;;;;;10412593;28;20499;-54
2024/04/05 10:11:41;;;;;;;5.85;1.58;;;16.20;99.90;;;;;;10413758;28;20076;-50
2024/04/05 10:16:43;;;;;;;7.35;1.80;;;15.90;99.90;;;;;;10417916;28;21323;-53
2024/04/05 10:21:47;;;;;;;8.47;1.60;;;15.60;99.90;;;;;;10415527;28;20798;-52
2024/04/05 10:26:54;;;;;;;10.77;2.00;;;15.30;99.90;;;;;;10411504;28;20052;-55
2024/04/05 10:32:10;;;;;;;7.38;1.85;;;15.30;99.90;;;;;;10415231;28;20045;-56
2024/04/05 10:37:20;;;;;;;6.57;1.90;;;14.80;99.90;;;;;;10414254;28;20060;-52
2024/04/05 10:42:26;;;;;;;0.10;0.10;;;14.60;99.90;;;;;;10415912;28;20080;-57
2024/04/05 10:47:35;;;;;;;0.00;0.00;;;14.50;99.90;;;;;;10415542;28;20056;-55
2024/04/05 10:52:49;;;;;;;0.68;0.68;;;14.30;99.90;;;;;;10414025;28;20057;-52
2024/04/05 10:57:51;;;;;;;9.57;2.75;;;14.10;99.90;;;;;;10413187;28;20098;-52
2024/04/05 11:02:54;;;;;;;0.10;0.10;;;13.80;99.90;;;;;;10414433;28;20214;-55
2024/04/05 11:08:02;;;;;;;0.10;0.10;;;13.70;99.90;;;;;;10414947;28;20126;-54
2024/04/05 11:13:16;;;;;;;3.70;1.60;;;13.40;99.90;;;;;;10415745;28;20060;-55
2024/04/05 11:18:21;;;;;;;10.82;2.20;;;13.40;99.90;;;;;;10410967;28;20627;-53
2024/04/05 11:23:32;;;;;;;14.25;2.78;;;13.60;99.90;;;;;;10410575;28;20084;-52
2024/04/05 11:28:35;;;;;;;11.48;2.88;;;13.50;99.90;;;;;;10409590;28;20057;-56
2024/04/05 11:33:36;;;;;;;15.10;3.23;;;13.50;99.90;;;;;;10408702;28;20044;-55
2024/04/05 11:38:40;;;;;;;15.20;3.40;;;13.70;99.90;;;;;;10413697;28;20124;-54
2024/04/05 11:43:44;;;;;;;13.02;3.55;;;13.80;99.90;;;;;;10415717;28;20778;-54
2024/04/05 11:48:49;;;;;;;26.38;4.95;;;13.80;99.90;;;;;;10411571;28;20242;-54
2024/04/05 11:53:52;;;;;;;21.75;3.22;;;14.10;99.90;;;;;;10413915;28;20114;-52
2024/04/05 11:58:54;;;;;;;8.80;2.20;;;14.30;99.90;;;;;;10414803;28;20052;-51
2024/04/05 12:03:56;;;;;;;13.65;4.20;;;14.60;99.90;;;;;;10417753;28;20869;-54
2024/04/05 12:09:02;;;;;;;9.53;2.30;;;14.90;99.90;;;;;;10416545;28;20053;-49
2024/04/05 12:14:04;;;;;;;11.68;2.65;;;15.30;99.90;;;;;;10416356;28;20440;-54
2024/04/05 12:19:09;;;;;;;10.30;2.60;;;15.60;99.90;;;;;;10410763;28;20056;-52
2024/04/05 12:24:15;;;;;;;5.65;2.53;;;15.50;99.90;;;;;;10415100;28;20045;-51
2024/04/05 12:29:21;;;;;;;14.43;3.17;;;15.60;99.90;;;;;;10417054;28;20101;-51
2024/04/05 12:34:27;;;;;;;10.88;1.85;;;15.90;99.90;;;;;;10423224;28;20079;-51
2024/04/05 12:39:30;;;;;;;9.60;2.30;;;16.00;99.90;;;;;;10428684;28;20049;-50
2024/04/05 12:44:34;;;;;;;11.30;2.55;;;16.10;99.90;;;;;;10423488;28;20072;-53
2024/04/05 12:49:38;;;;;;;18.02;3.45;;;16.10;99.90;;;;;;10420482;28;20048;-51
2024/04/05 12:54:42;;;;;;;15.05;3.03;;;16.40;99.90;;;;;;10417165;28;20061;-52
2024/04/05 12:59:48;;;;;;;17.73;3.50;;;16.40;99.90;;;;;;10415837;28;20073;-53
2024/04/05 13:04:54;;;;;;;12.88;2.67;;;16.80;99.90;;;;;;10420335;28;20056;-54
2024/04/05 13:09:58;;;;;;;14.75;3.33;;;16.80;99.90;;;;;;10422616;28;20070;-55
2024/04/05 13:15:00;;;;;;;15.48;3.08;;;16.80;99.90;;;;;;10423904;28;20087;-54
2024/04/05 13:20:03;;;;;;;18.83;3.65;;;17.10;99.90;;;;;;10421100;28;20042;-49
2024/04/05 13:25:07;;;;;;;23.27;4.50;;;17.00;99.90;;;;;;10422172;28;20061;-55
2024/04/05 13:30:10;;;;;;;15.45;2.47;;;17.10;99.90;;;;;;10418081;28;20072;-55
2024/04/05 13:35:12;;;;;;;18.17;3.45;;;17.60;99.90;;;;;;10426184;28;20084;-55
2024/04/05 13:40:21;;;;;;;22.87;3.10;;;17.80;99.90;;;;;;10420169;28;20613;-54
2024/04/05 13:45:23;;;;;;;18.98;4.22;;;17.80;99.90;;;;;;10421264;28;20059;-53
2024/04/05 13:50:29;;;;;;;14.63;3.28;;;17.80;99.90;;;;;;10416712;28;20126;-56
2024/04/05 13:55:33;;;;;;;15.93;2.05;;;17.90;99.90;;;;;;10414432;28;20053;-53
2024/04/05 14:00:37;;;;;;;10.75;2.42;;;18.40;99.90;;;;;;10416458;28;20052;-56
2024/04/05 14:05:42;;;;;;;16.05;3.63;;;18.70;99.90;;;;;;10420350;28;20064;-56
2024/04/05 14:10:48;;;;;;;17.63;3.22;;;18.70;99.90;;;;;;10416336;28;20045;-52
2024/04/05 14:16:01;;;;;;;13.43;2.08;;;18.80;99.90;;;;;;10420078;28;20057;-53
2024/04/05 14:21:08;;;;;;;12.43;2.53;;;18.90;99.90;;;;;;10422013;28;20140;-53
2024/04/05 14:26:12;;;;;;;11.80;2.08;;;18.90;99.90;;;;;;10420060;28;20060;-52
2024/04/05 14:31:14;;;;;;;21.58;2.53;;;19.00;99.90;;;;;;10410493;28;20049;-51
2024/04/05 14:36:19;;;;;;;15.77;2.83;;;19.20;99.90;;;;;;10406977;28;20053;-51
2024/04/05 14:41:25;;;;;;;11.45;2.60;;;19.30;99.90;;;;;;10423378;28;20171;-51
2024/04/05 14:46:27;;;;;;;15.98;3.33;;;19.30;99.90;;;;;;10418236;28;20052;-53
2024/04/05 14:51:29;;;;;;;14.65;3.08;;;19.70;99.90;;;;;;10413483;28;20230;-53
2024/04/05 14:56:34;;;;;;;16.17;2.92;;;19.40;99.90;;;;;;10416081;28;20393;-53
2024/04/05 15:01:37;;;;;;;19.70;2.80;;;19.40;99.90;;;;;;10411225;28;20048;-51
2024/04/05 15:06:40;;;;;;;15.82;2.58;;;19.40;99.90;;;;;;10412240;28;20900;-53
2024/04/05 15:11:43;;;;;;;17.60;3.20;;;19.60;99.90;;;;;;10408634;28;20053;-52
2024/04/05 15:16:45;;;;;;;14.77;2.78;;;19.40;99.90;;;;;;10410034;28;20053;-54
2024/04/05 15:21:47;;;;;;;14.00;3.05;;;19.00;99.90;;;;;;10416856;28;20114;-55
2024/04/05 15:26:51;;;;;;;9.03;1.40;;;18.90;99.90;;;;;;10415767;28;20139;-53
2024/04/05 15:31:53;;;;;;;16.27;3.25;;;18.80;99.90;;;;;;10413384;28;20119;-54
2024/04/05 15:36:55;;;;;;;14.27;2.78;;;18.70;99.90;;;;;;10411986;28;20191;-53
2024/04/05 15:42:03;;;;;;;10.18;2.38;;;18.50;99.90;;;;;;10416128;28;20077;-52
2024/04/05 15:47:08;;;;;;;16.27;2.55;;;18.20;99.90;;;;;;10414073;28;20056;-54
2024/04/05 15:52:10;;;;;;;10.48;2.97;;;18.00;99.90;;;;;;10411771;28;20061;-53
2024/04/05 15:57:13;;;;;;;22.17;2.53;;;18.30;99.90;;;;;;10412357;28;20060;-53
2024/04/05 16:02:15;;;;;;;16.92;3.28;;;18.30;99.90;;;;;;10414734;28;20048;-52
2024/04/05 16:07:19;;;;;;;22.07;4.10;;;18.00;99.90;;;;;;10410216;28;20330;-51
2024/04/05 16:12:22;;;;;;;15.60;2.92;;;18.00;99.90;;;;;;10412210;28;21112;-55
2024/04/05 16:17:24;;;;;;;17.58;3.17;;;18.20;99.90;;;;;;10405898;28;21100;-51
2024/04/05 16:22:28;;;;;;;16.77;4.27;;;19.00;99.90;;;;;;10412100;28;20044;-55
2024/04/05 16:27:34;;;;;;;15.70;3.58;;;19.40;99.90;;;;;;10413997;28;20475;-53
2024/04/05 16:32:42;;;;;;;20.77;3.50;;;19.00;99.90;;;;;;10410985;28;20048;-52
2024/04/05 16:37:46;;;;;;;17.13;3.10;;;18.40;99.90;;;;;;10410076;28;20068;-56
2024/04/05 16:42:54;;;;;;;17.52;3.75;;;17.80;99.90;;;;;;10410677;28;20600;-51
2024/04/05 16:47:56;;;;;;;19.80;3.17;;;17.40;99.90;;;;;;10404870;28;20072;-51
2024/04/05 16:53:01;;;;;;;17.80;3.10;;;17.10;99.90;;;;;;10408523;28;20044;-52
2024/04/05 16:58:05;;;;;;;19.38;3.22;;;17.20;99.90;;;;;;10410854;28;20052;-49
2024/04/05 17:03:08;;;;;;;23.08;3.60;;;16.80;99.90;;;;;;10424797;28;20057;-50
2024/04/05 17:08:14;;;;;;;24.63;4.65;;;16.50;99.90;;;;;;10418336;28;20049;-52
2024/04/05 17:13:40;;;;;;;11.75;2.70;;;16.10;99.90;;;;;;10425817;28;20049;-54
2024/04/05 17:18:43;;;;;;;20.17;2.55;;;16.10;99.90;;;;;;10429091;28;20065;-50
2024/04/05 17:23:49;;;;;;;18.00;2.40;;;16.00;99.90;;;;;;10416687;28;20863;-53
2024/04/05 17:28:52;;;;;;;24.30;3.92;;;15.80;99.90;;;;;;10418313;28;20151;-53
2024/04/05 17:33:54;;;;;;;16.70;2.75;;;15.40;99.90;;;;;;10414342;28;20132;-53
2024/04/05 17:38:56;;;;;;;24.35;3.60;;;15.60;99.90;;;;;;10412297;28;20084;-56
2024/04/05 17:44:04;;;;;;;21.47;2.90;;;15.20;99.90;;;;;;10409913;28;20176;-52
2024/04/05 17:49:07;;;;;;;19.30;3.95;;;15.10;99.90;;;;;;10407847;28;20172;-51
2024/04/05 17:54:13;;;;;;;14.23;3.30;;;15.30;99.90;;;;;;10412147;28;20052;-56
2024/04/05 17:59:18;;;;;;;21.00;4.95;;;15.00;99.90;;;;;;10407731;28;20068;-51
2024/04/05 18:04:23;;;;;;;16.83;3.15;;;15.00;99.90;;;;;;10412063;28;20666;-51
2024/04/05 18:09:26;;;;;;;22.00;3.35;;;15.10;99.90;;;;;;10409509;28;20222;-61
2024/04/05 18:14:30;;;;;;;20.07;4.43;;;14.90;99.90;;;;;;10411771;28;20951;-60
2024/04/05 18:19:33;;;;;;;19.38;3.42;;;14.60;99.90;;;;;;10408453;28;20486;-58
2024/04/05 18:24:35;;;;;;;18.10;3.50;;;14.50;99.90;;;;;;10412623;28;20045;-59
2024/04/05 18:29:41;;;;;;;18.35;4.05;;;14.60;99.90;;;;;;10414461;28;20076;-57
2024/04/05 18:34:46;;;;;;;15.65;2.97;;;14.50;99.90;;;;;;10412659;28;20891;-58
2024/04/05 18:39:51;;;;;;;17.23;2.63;;;14.50;99.90;;;;;;10411936;28;20053;-59
2024/04/05 18:44:55;;;;;;;15.48;3.08;;;14.80;99.90;;;;;;10415917;28;20432;-59
2024/04/05 18:50:00;;;;;;;20.85;3.38;;;14.60;99.90;;;;;;10413936;28;20049;-56
2024/04/05 18:55:03;;;;;;;18.42;2.47;;;14.50;99.90;;;;;;10411013;28;20059;-58
2024/04/05 19:00:15;;;;;;;17.75;3.35;;;14.50;99.90;;;;;;10405149;28;20084;-60
2024/04/05 19:05:20;;;;;;;15.03;2.97;;;14.70;99.90;;;;;;10411172;28;20060;-61
2024/04/05 19:10:26;;;;;;;15.00;2.45;;;14.60;99.90;;;;;;10410972;28;20049;-53
2024/04/05 19:15:31;;;;;;;16.77;2.95;;;14.50;99.90;;;;;;10408784;28;20049;-57
2024/04/05 19:20:35;;;;;;;21.08;3.00;;;14.60;99.90;;;;;;10410917;28;20053;-57
2024/04/05 19:25:39;;;;;;;32.92;3.92;;;14.50;99.90;;;;;;10412358;28;20053;-56
2024/04/05 19:30:46;;;;;;;16.10;3.13;;;14.20;99.90;;;;;;10412235;28;20037;-56
2024/04/05 19:35:56;;;;;;;22.05;2.78;;;14.10;99.90;;;;;;10410761;28;20602;-58
2024/04/05 19:40:59;;;;;;;17.40;2.70;;;14.00;99.90;;;;;;10409509;28;20503;-56
2024/04/05 19:46:07;;;;;;;16.50;2.83;;;14.20;99.90;;;;;;10412311;28;20069;-54
2024/04/05 19:51:13;;;;;;;12.40;2.22;;;14.30;99.90;;;;;;10412485;28;20180;-59
2024/04/05 19:56:15;;;;;;;13.88;3.80;;;14.40;99.90;;;;;;10416823;28;20053;-58
2024/04/05 20:01:19;;;;;;;23.13;3.30;;;14.20;99.90;;;;;;10417023;28;21023;-58
2024/04/05 20:06:21;;;;;;;22.10;3.67;;;14.30;99.90;;;;;;10418649;28;20135;-56
2024/04/05 20:11:25;;;;;;;20.73;3.92;;;14.40;99.90;;;;;;10415488;28;20056;-58
2024/04/05 20:16:29;;;;;;;21.83;2.53;;;14.30;99.90;;;;;;10411433;28;20935;-57
2024/04/05 20:21:31;;;;;;;17.42;2.50;;;14.20;99.90;;;;;;10410133;28;20487;-57
2024/04/05 20:26:38;;;;;;;11.15;2.72;;;14.30;99.90;;;;;;10416116;28;20075;-59
2024/04/05 20:37:07;;;;;;;19.13;4.65;;;14.40;99.90;;;;;;10421499;28;20500;-57
2024/04/05 20:42:12;;;;;;;15.85;3.05;;;14.40;99.90;;;;;;10417991;28;20090;-58
2024/04/05 20:47:17;;;;;;;21.77;2.70;;;14.60;99.90;;;;;;10416592;28;20041;-56
2024/04/05 20:52:30;;;;;;;20.77;2.15;;;14.50;99.90;;;;;;10420758;28;20069;-57
2024/04/05 20:57:33;;;;;;;13.85;2.28;;;14.40;99.90;;;;;;10426971;28;20053;-58
2024/04/05 21:02:36;;;;;;;20.67;3.22;;;14.50;99.90;;;;;;10423977;28;20044;-57
2024/04/05 21:07:38;;;;;;;13.85;2.72;;;14.40;99.90;;;;;;10429551;28;20053;-57
2024/04/05 21:12:40;;;;;;;13.00;2.13;;;14.50;99.90;;;;;;10426763;28;20107;-57
2024/04/05 21:17:47;;;;;;;10.05;1.55;;;14.70;99.90;;;;;;10429541;28;20531;-58
2024/04/05 21:22:56;;;;;;;18.10;2.67;;;14.50;99.90;;;;;;10432430;28;20233;-56
2024/04/05 21:28:04;;;;;;;20.60;2.25;;;14.30;99.90;;;;;;10427741;28;20068;-58
2024/04/05 21:33:17;;;;;;;10.13;1.80;;;14.20;99.90;;;;;;10421685;28;20057;-59
2024/04/05 21:38:20;;;;;;;15.50;3.08;;;14.30;99.90;;;;;;10425652;28;20056;-59
2024/04/05 21:43:22;;;;;;;20.98;3.22;;;14.20;99.90;;;;;;10425932;28;20048;-57
2024/04/05 21:48:26;;;;;;;24.20;2.78;;;14.10;99.90;;;;;;10425680;28;20076;-56
2024/04/05 21:53:37;;;;;;;18.60;3.03;;;14.30;99.90;;;;;;10423856;28;20095;-57
2024/04/05 21:58:41;;;;;;;17.90;3.50;;;14.20;99.90;;;;;;10415606;28;20160;-57
2024/04/05 22:03:47;;;;;;;14.93;3.38;;;14.30;99.90;;;;;;10425410;28;20497;-57
2024/04/05 22:08:50;;;;;;;8.35;1.90;;;15.60;99.90;;;;;;10423402;28;20057;-58
2024/04/05 22:13:53;;;;;;;13.55;2.50;;;16.00;99.90;;;;;;10421036;28;20053;-58
2024/04/05 22:19:01;;;;;;;16.65;2.47;;;15.50;99.90;;;;;;10423284;28;20467;-59
2024/04/05 22:24:03;;;;;;;15.55;3.25;;;15.70;99.90;;;;;;10425005;28;20056;-57
2024/04/05 22:29:09;;;;;;;15.80;2.60;;;16.00;99.90;;;;;;10422909;28;20162;-59
2024/04/05 22:34:13;;;;;;;20.10;2.92;;;15.30;99.90;;;;;;10422893;28;21957;-58
2024/04/05 22:39:18;;;;;;;13.95;2.67;;;15.30;99.90;;;;;;10422884;28;20511;-58
2024/04/05 22:44:25;;;;;;;12.43;2.90;;;15.40;99.90;;;;;;10422665;28;20318;-54
2024/04/05 22:49:39;;;;;;;10.60;3.00;;;15.40;99.90;;;;;;10423579;28;20060;-57
2024/04/05 22:54:44;;;;;;;13.82;3.13;;;15.40;99.90;;;;;;10422118;28;20670;-57
2024/04/05 22:59:46;;;;;;;12.38;2.65;;;15.00;99.90;;;;;;10423098;28;20056;-59
2024/04/05 23:04:50;;;;;;;14.73;2.45;;;15.60;99.90;;;;;;10427069;28;20129;-57
2024/04/05 23:09:54;;;;;;;8.60;3.08;;;15.10;99.90;;;;;;10426905;28;20060;-56
2024/04/05 23:14:56;;;;;;;13.07;3.13;;;15.20;99.90;;;;;;10427060;28;20524;-54
2024/04/05 23:20:02;;;;;;;16.52;2.70;;;14.80;99.90;;;;;;10426258;28;20091;-57
2024/04/05 23:25:16;;;;;;;14.20;3.45;;;15.60;99.90;;;;;;10418479;28;20045;-56
2024/04/05 23:30:21;;;;;;;13.18;3.03;;;16.10;99.90;;;;;;10418172;28;20064;-57
2024/04/05 23:35:27;;;;;;;10.50;3.03;;;16.40;99.90;;;;;;10419170;28;20068;-57
2024/04/05 23:40:29;;;;;;;14.38;3.55;;;16.60;99.90;;;;;;10420093;28;20056;-57
2024/04/05 23:45:31;;;;;;;11.85;2.80;;;17.00;99.90;;;;;;10421433;28;21407;-58
2024/04/05 23:50:39;;;;;;;11.57;3.60;;;17.00;99.90;;;;;;10418962;28;20752;-59
2024/04/05 23:55:42;;;;;;;6.70;2.70;;;17.10;99.90;;;;;;10420471;28;20836;-59
